THY3TW LGAV-LTFM
Flight info
| Callsign | THY3TW |
|---|---|
| Flight time | 1h 0m |
| Altitude | 37000 |
| Route | KRO UN604 INBET |
| Aircraft | A320/M-SDE3FGHIRWY/LB1 |
Departure
| Time | 2026-05-06 10:51 |
|---|---|
| Airport | Athens Eleftherios Venizelos International Airport (LGAV) |
Arrival
| Time | 2026-05-06 11:51 |
|---|---|
| Airport | İstanbul Airport (LTFM) |
| Time | Latitude | Longitude | Altitude | Speed | Heading |
|---|---|---|---|---|---|
| 2026-05-06 10:31 | 37.93412 | 23.94653 | 301 ft | 0 kts | 307° |
| 2026-05-06 10:41 | 37.93409 | 23.94658 | 301 ft | 4 kts | 308° |
| 2026-05-06 10:41 | 37.93391 | 23.94684 | 302 ft | 4 kts | 316° |
| 2026-05-06 10:42 | 37.93370 | 23.94706 | 301 ft | 4 kts | 332° |
| 2026-05-06 10:42 | 37.93347 | 23.94714 | 301 ft | 4 kts | 18° |
| 2026-05-06 10:42 | 37.93337 | 23.94708 | 301 ft | 1 kts | 37° |
| 2026-05-06 10:42 | 37.93336 | 23.94707 | 301 ft | 0 kts | 37° |
| 2026-05-06 10:45 | 37.93339 | 23.94710 | 304 ft | 2 kts | 37° |
| 2026-05-06 10:45 | 37.93353 | 23.94724 | 301 ft | 4 kts | 37° |
| 2026-05-06 10:45 | 37.93382 | 23.94751 | 301 ft | 7 kts | 37° |
| 2026-05-06 10:46 | 37.93426 | 23.94793 | 303 ft | 9 kts | 37° |
| 2026-05-06 10:46 | 37.93444 | 23.94867 | 301 ft | 11 kts | 114° |
| 2026-05-06 10:46 | 37.93398 | 23.94960 | 302 ft | 13 kts | 123° |
| 2026-05-06 10:46 | 37.93317 | 23.94965 | 299 ft | 15 kts | 215° |
| 2026-05-06 10:47 | 37.93226 | 23.94883 | 300 ft | 17 kts | 216° |
| 2026-05-06 10:47 | 37.93127 | 23.94788 | 301 ft | 19 kts | 218° |
| 2026-05-06 10:47 | 37.93016 | 23.94679 | 300 ft | 21 kts | 217° |
| 2026-05-06 10:47 | 37.92892 | 23.94563 | 303 ft | 23 kts | 216° |
| 2026-05-06 10:48 | 37.92759 | 23.94437 | 303 ft | 25 kts | 217° |
| 2026-05-06 10:48 | 37.92617 | 23.94302 | 304 ft | 26 kts | 216° |
| 2026-05-06 10:48 | 37.92499 | 23.94190 | 303 ft | 18 kts | 217° |
| 2026-05-06 10:48 | 37.92410 | 23.94205 | 304 ft | 15 kts | 110° |
| 2026-05-06 10:49 | 37.92411 | 23.94331 | 308 ft | 14 kts | 89° |
| 2026-05-06 10:49 | 37.92422 | 23.94390 | 311 ft | 2 kts | 33° |
| 2026-05-06 10:49 | 37.92431 | 23.94399 | 309 ft | 0 kts | 37° |
| 2026-05-06 10:50 | 37.92458 | 23.94425 | 309 ft | 26 kts | 37° |
| 2026-05-06 10:50 | 37.92809 | 23.94759 | 302 ft | 97 kts | 37° |
| 2026-05-06 10:50 | 37.93496 | 23.95411 | 286 ft | 147 kts | 37° |
| 2026-05-06 10:50 | 37.94385 | 23.96279 | 606 ft | 163 kts | 38° |
| 2026-05-06 10:51 | 37.95269 | 23.97131 | 1272 ft | 163 kts | 36° |
| 2026-05-06 10:51 | 37.96186 | 23.97997 | 1889 ft | 166 kts | 36° |
| 2026-05-06 10:51 | 37.97146 | 23.98910 | 2301 ft | 181 kts | 35° |
| 2026-05-06 10:51 | 37.98209 | 23.99914 | 2677 ft | 200 kts | 34° |
| 2026-05-06 10:52 | 37.99403 | 24.01027 | 2987 ft | 228 kts | 33° |
| 2026-05-06 10:52 | 38.00753 | 24.02293 | 3449 ft | 251 kts | 33° |
| 2026-05-06 10:52 | 38.02162 | 24.03624 | 4268 ft | 255 kts | 33° |
| 2026-05-06 10:52 | 38.03585 | 24.04999 | 5149 ft | 259 kts | 36° |
| 2026-05-06 10:53 | 38.05013 | 24.06410 | 6049 ft | 261 kts | 36° |
| 2026-05-06 10:53 | 38.06456 | 24.07835 | 6964 ft | 264 kts | 36° |
| 2026-05-06 10:53 | 38.07868 | 24.09329 | 7899 ft | 265 kts | 46° |
| 2026-05-06 10:53 | 38.08816 | 24.11349 | 8725 ft | 272 kts | 70° |
| 2026-05-06 10:54 | 38.09068 | 24.13788 | 9313 ft | 291 kts | 94° |
| 2026-05-06 10:54 | 38.08486 | 24.16265 | 10092 ft | 296 kts | 111° |
| 2026-05-06 10:54 | 38.07742 | 24.18769 | 10555 ft | 313 kts | 108° |
| 2026-05-06 10:54 | 38.07024 | 24.21429 | 10852 ft | 333 kts | 107° |
| 2026-05-06 10:55 | 38.06271 | 24.24302 | 11173 ft | 350 kts | 107° |
| 2026-05-06 10:55 | 38.05490 | 24.27266 | 11797 ft | 356 kts | 107° |
| 2026-05-06 10:55 | 38.04689 | 24.30262 | 12476 ft | 361 kts | 107° |
| 2026-05-06 10:55 | 38.04176 | 24.33375 | 13137 ft | 362 kts | 90° |
| 2026-05-06 10:56 | 38.04471 | 24.36532 | 13802 ft | 362 kts | 70° |
| 2026-05-06 10:56 | 38.05567 | 24.39390 | 14420 ft | 361 kts | 51° |
| 2026-05-06 10:56 | 38.07115 | 24.41904 | 15042 ft | 363 kts | 48° |
| 2026-05-06 10:56 | 38.08694 | 24.44413 | 15642 ft | 366 kts | 48° |
| 2026-05-06 10:57 | 38.10291 | 24.46950 | 16255 ft | 369 kts | 48° |
| 2026-05-06 10:57 | 38.11896 | 24.49508 | 16856 ft | 372 kts | 48° |
| 2026-05-06 10:57 | 38.13516 | 24.52094 | 17440 ft | 376 kts | 48° |
| 2026-05-06 10:57 | 38.15152 | 24.54709 | 18048 ft | 380 kts | 47° |
| 2026-05-06 10:58 | 38.16801 | 24.57353 | 18605 ft | 383 kts | 47° |
| 2026-05-06 10:58 | 38.18460 | 24.60022 | 19129 ft | 386 kts | 47° |
| 2026-05-06 10:58 | 38.20130 | 24.62715 | 19652 ft | 390 kts | 47° |
| 2026-05-06 10:58 | 38.21818 | 24.65436 | 20194 ft | 393 kts | 47° |
| 2026-05-06 10:59 | 38.23517 | 24.68173 | 20723 ft | 396 kts | 47° |
| 2026-05-06 10:59 | 38.25227 | 24.70931 | 21226 ft | 399 kts | 47° |
| 2026-05-06 10:59 | 38.26951 | 24.73711 | 21720 ft | 402 kts | 47° |
| 2026-05-06 10:59 | 38.28688 | 24.76510 | 22197 ft | 405 kts | 47° |
| 2026-05-06 11:00 | 38.30438 | 24.79332 | 22664 ft | 408 kts | 47° |
| 2026-05-06 11:00 | 38.32175 | 24.82140 | 23121 ft | 411 kts | 46° |
| 2026-05-06 11:00 | 38.33947 | 24.85010 | 23586 ft | 414 kts | 46° |
| 2026-05-06 11:00 | 38.35731 | 24.87903 | 23983 ft | 417 kts | 46° |
| 2026-05-06 11:01 | 38.37527 | 24.90814 | 24378 ft | 419 kts | 46° |
| 2026-05-06 11:01 | 38.39333 | 24.93745 | 24785 ft | 421 kts | 46° |
| 2026-05-06 11:01 | 38.41147 | 24.96692 | 25195 ft | 423 kts | 46° |
| 2026-05-06 11:01 | 38.42966 | 24.99650 | 25577 ft | 425 kts | 46° |
| 2026-05-06 11:02 | 38.44795 | 25.02628 | 25981 ft | 427 kts | 46° |
| 2026-05-06 11:02 | 38.46629 | 25.05617 | 26360 ft | 429 kts | 46° |
| 2026-05-06 11:02 | 38.48475 | 25.08624 | 26742 ft | 431 kts | 46° |
| 2026-05-06 11:02 | 38.50332 | 25.11649 | 27131 ft | 433 kts | 46° |
| 2026-05-06 11:03 | 38.52195 | 25.14689 | 27505 ft | 436 kts | 46° |
| 2026-05-06 11:03 | 38.54064 | 25.17742 | 27895 ft | 438 kts | 46° |
| 2026-05-06 11:03 | 38.55943 | 25.20818 | 28283 ft | 440 kts | 46° |
| 2026-05-06 11:03 | 38.57803 | 25.23867 | 28666 ft | 442 kts | 46° |
| 2026-05-06 11:04 | 38.59694 | 25.26976 | 29033 ft | 444 kts | 46° |
| 2026-05-06 11:04 | 38.61593 | 25.30099 | 29399 ft | 446 kts | 46° |
| 2026-05-06 11:04 | 38.63504 | 25.33242 | 29790 ft | 448 kts | 46° |
| 2026-05-06 11:04 | 38.65419 | 25.36395 | 30216 ft | 449 kts | 45° |
| 2026-05-06 11:05 | 38.67330 | 25.39543 | 30667 ft | 447 kts | 45° |
| 2026-05-06 11:05 | 38.69236 | 25.42681 | 31130 ft | 446 kts | 45° |
| 2026-05-06 11:05 | 38.71134 | 25.45810 | 31601 ft | 444 kts | 45° |
| 2026-05-06 11:05 | 38.73019 | 25.48924 | 32076 ft | 442 kts | 45° |
| 2026-05-06 11:06 | 38.74899 | 25.52029 | 32542 ft | 440 kts | 45° |
| 2026-05-06 11:06 | 38.76773 | 25.55123 | 33007 ft | 439 kts | 45° |
| 2026-05-06 11:06 | 38.78642 | 25.58215 | 33474 ft | 437 kts | 45° |
| 2026-05-06 11:06 | 38.80504 | 25.61297 | 33947 ft | 436 kts | 45° |
| 2026-05-06 11:07 | 38.82360 | 25.64371 | 34391 ft | 435 kts | 45° |
| 2026-05-06 11:07 | 38.84204 | 25.67436 | 34784 ft | 434 kts | 45° |
| 2026-05-06 11:07 | 38.86042 | 25.70498 | 35137 ft | 433 kts | 45° |
| 2026-05-06 11:07 | 38.87881 | 25.73562 | 35459 ft | 433 kts | 45° |
| 2026-05-06 11:08 | 38.89720 | 25.76621 | 35759 ft | 433 kts | 45° |
| 2026-05-06 11:08 | 38.91536 | 25.79644 | 36051 ft | 434 kts | 45° |
| 2026-05-06 11:08 | 38.93378 | 25.82712 | 36335 ft | 434 kts | 45° |
| 2026-05-06 11:08 | 38.95224 | 25.85787 | 36619 ft | 434 kts | 45° |
| 2026-05-06 11:09 | 38.97066 | 25.88865 | 36900 ft | 435 kts | 45° |
| 2026-05-06 11:09 | 38.98909 | 25.91954 | 37085 ft | 436 kts | 45° |
| 2026-05-06 11:09 | 39.00765 | 25.95068 | 37125 ft | 441 kts | 45° |
| 2026-05-06 11:10 | 39.04515 | 26.01358 | 37112 ft | 445 kts | 46° |
| 2026-05-06 11:10 | 39.08282 | 26.07690 | 37111 ft | 445 kts | 46° |
| 2026-05-06 11:11 | 39.12043 | 26.14025 | 37100 ft | 445 kts | 46° |
| 2026-05-06 11:11 | 39.15806 | 26.20370 | 37109 ft | 445 kts | 46° |
| 2026-05-06 11:12 | 39.19567 | 26.26727 | 37118 ft | 446 kts | 46° |
| 2026-05-06 11:12 | 39.23321 | 26.33092 | 37109 ft | 446 kts | 47° |
| 2026-05-06 11:13 | 39.27059 | 26.39443 | 37105 ft | 446 kts | 46° |
| 2026-05-06 11:13 | 39.30817 | 26.45831 | 37123 ft | 446 kts | 47° |
| 2026-05-06 11:14 | 39.35045 | 26.51532 | 37117 ft | 434 kts | 31° |
| 2026-05-06 11:14 | 39.39973 | 26.55975 | 37114 ft | 432 kts | 29° |
| 2026-05-06 11:15 | 39.44911 | 26.60400 | 37130 ft | 432 kts | 29° |
| 2026-05-06 11:15 | 39.49850 | 26.64831 | 37121 ft | 432 kts | 30° |
| 2026-05-06 11:16 | 39.54787 | 26.69273 | 37112 ft | 432 kts | 30° |
| 2026-05-06 11:16 | 39.59684 | 26.73695 | 37100 ft | 432 kts | 30° |
| 2026-05-06 11:17 | 39.64613 | 26.78156 | 37096 ft | 432 kts | 30° |
| 2026-05-06 11:17 | 39.69544 | 26.82618 | 37096 ft | 432 kts | 30° |
| 2026-05-06 11:18 | 39.74477 | 26.87082 | 37017 ft | 433 kts | 30° |
| 2026-05-06 11:18 | 39.76971 | 26.89339 | 36157 ft | 440 kts | 30° |
| 2026-05-06 11:18 | 39.79487 | 26.91622 | 35415 ft | 442 kts | 30° |
| 2026-05-06 11:18 | 39.82017 | 26.93926 | 34621 ft | 446 kts | 30° |
| 2026-05-06 11:19 | 39.84565 | 26.96248 | 33984 ft | 445 kts | 30° |
| 2026-05-06 11:19 | 39.87098 | 26.98561 | 33226 ft | 445 kts | 30° |
| 2026-05-06 11:19 | 39.89639 | 27.00877 | 32316 ft | 448 kts | 30° |
| 2026-05-06 11:19 | 39.92197 | 27.03208 | 31516 ft | 448 kts | 30° |
| 2026-05-06 11:20 | 39.94752 | 27.05543 | 30744 ft | 449 kts | 30° |
| 2026-05-06 11:20 | 39.97293 | 27.07873 | 30150 ft | 445 kts | 30° |
| 2026-05-06 11:20 | 39.99815 | 27.10191 | 29497 ft | 440 kts | 30° |
| 2026-05-06 11:20 | 40.02302 | 27.12480 | 28906 ft | 434 kts | 30° |
| 2026-05-06 11:21 | 40.03928 | 27.13977 | 28527 ft | 431 kts | 30° |
| 2026-05-06 11:21 | 40.07149 | 27.16937 | 27762 ft | 424 kts | 30° |
| 2026-05-06 11:21 | 40.09548 | 27.19136 | 27194 ft | 419 kts | 30° |
| 2026-05-06 11:21 | 40.11922 | 27.21315 | 26628 ft | 415 kts | 30° |
| 2026-05-06 11:22 | 40.14267 | 27.23470 | 26075 ft | 410 kts | 30° |
| 2026-05-06 11:22 | 40.16634 | 27.25496 | 25544 ft | 402 kts | 24° |
| 2026-05-06 11:22 | 40.19152 | 27.26899 | 25262 ft | 386 kts | 13° |
| 2026-05-06 11:22 | 40.21717 | 27.27666 | 24621 ft | 374 kts | 4° |
| 2026-05-06 11:23 | 40.24295 | 27.27867 | 24201 ft | 369 kts | 360° |
| 2026-05-06 11:23 | 40.26850 | 27.28020 | 23799 ft | 367 kts | 0° |
| 2026-05-06 11:23 | 40.29397 | 27.28192 | 23354 ft | 365 kts | 0° |
| 2026-05-06 11:23 | 40.31920 | 27.28375 | 22944 ft | 363 kts | 1° |
| 2026-05-06 11:24 | 40.34436 | 27.28558 | 22541 ft | 361 kts | 1° |
| 2026-05-06 11:24 | 40.36942 | 27.28739 | 22143 ft | 360 kts | 1° |
| 2026-05-06 11:24 | 40.38594 | 27.28857 | 21877 ft | 358 kts | 1° |
| 2026-05-06 11:24 | 40.41077 | 27.29031 | 21480 ft | 357 kts | 1° |
| 2026-05-06 11:25 | 40.43555 | 27.29203 | 21086 ft | 355 kts | 1° |
| 2026-05-06 11:25 | 40.46017 | 27.29371 | 20692 ft | 354 kts | 1° |
| 2026-05-06 11:25 | 40.48467 | 27.29538 | 20311 ft | 352 kts | 1° |
| 2026-05-06 11:25 | 40.50913 | 27.29703 | 19916 ft | 351 kts | 1° |
| 2026-05-06 11:26 | 40.53347 | 27.29869 | 19527 ft | 350 kts | 1° |
| 2026-05-06 11:26 | 40.55772 | 27.30039 | 19139 ft | 348 kts | 1° |
| 2026-05-06 11:26 | 40.58186 | 27.30207 | 18759 ft | 347 kts | 1° |
| 2026-05-06 11:26 | 40.60591 | 27.30373 | 18371 ft | 346 kts | 1° |
| 2026-05-06 11:27 | 40.62991 | 27.30536 | 17959 ft | 344 kts | 1° |
| 2026-05-06 11:27 | 40.65374 | 27.30696 | 17580 ft | 342 kts | 1° |
| 2026-05-06 11:27 | 40.67718 | 27.30854 | 17354 ft | 331 kts | 1° |
| 2026-05-06 11:27 | 40.69976 | 27.31009 | 17219 ft | 318 kts | 1° |
| 2026-05-06 11:28 | 40.72154 | 27.31162 | 17054 ft | 309 kts | 1° |
| 2026-05-06 11:28 | 40.74238 | 27.31532 | 16763 ft | 305 kts | 13° |
| 2026-05-06 11:28 | 40.76237 | 27.32439 | 16508 ft | 303 kts | 18° |
| 2026-05-06 11:28 | 40.78202 | 27.33409 | 16254 ft | 300 kts | 18° |
| 2026-05-06 11:29 | 40.80156 | 27.34371 | 15998 ft | 300 kts | 18° |
| 2026-05-06 11:29 | 40.82104 | 27.35326 | 15746 ft | 298 kts | 18° |
| 2026-05-06 11:29 | 40.84045 | 27.36277 | 15500 ft | 297 kts | 18° |
| 2026-05-06 11:29 | 40.85978 | 27.37226 | 15257 ft | 295 kts | 18° |
| 2026-05-06 11:30 | 40.87897 | 27.38170 | 15114 ft | 295 kts | 18° |
| 2026-05-06 11:30 | 40.89798 | 27.39105 | 14872 ft | 294 kts | 18° |
| 2026-05-06 11:30 | 40.91706 | 27.40044 | 14612 ft | 292 kts | 18° |
| 2026-05-06 11:30 | 40.93486 | 27.41317 | 14358 ft | 295 kts | 38° |
| 2026-05-06 11:31 | 40.94687 | 27.43522 | 14079 ft | 302 kts | 65° |
| 2026-05-06 11:31 | 40.94978 | 27.46280 | 13981 ft | 311 kts | 93° |
| 2026-05-06 11:31 | 40.94366 | 27.49056 | 13934 ft | 319 kts | 107° |
| 2026-05-06 11:31 | 40.93560 | 27.51798 | 13869 ft | 320 kts | 108° |
| 2026-05-06 11:32 | 40.92735 | 27.54538 | 13805 ft | 320 kts | 108° |
| 2026-05-06 11:32 | 40.91908 | 27.57271 | 13721 ft | 319 kts | 108° |
| 2026-05-06 11:32 | 40.91087 | 27.59998 | 13650 ft | 319 kts | 108° |
| 2026-05-06 11:32 | 40.90242 | 27.62710 | 13562 ft | 319 kts | 110° |
| 2026-05-06 11:33 | 40.89337 | 27.65389 | 13496 ft | 319 kts | 111° |
| 2026-05-06 11:33 | 40.88403 | 27.68049 | 13421 ft | 319 kts | 111° |
| 2026-05-06 11:33 | 40.87460 | 27.70697 | 13346 ft | 318 kts | 111° |
| 2026-05-06 11:33 | 40.86521 | 27.73342 | 13274 ft | 318 kts | 111° |
| 2026-05-06 11:34 | 40.85587 | 27.75987 | 13200 ft | 317 kts | 111° |
| 2026-05-06 11:34 | 40.84657 | 27.78632 | 13037 ft | 317 kts | 111° |
| 2026-05-06 11:34 | 40.83735 | 27.81265 | 12767 ft | 315 kts | 111° |
| 2026-05-06 11:34 | 40.82825 | 27.83886 | 12509 ft | 313 kts | 109° |
| 2026-05-06 11:35 | 40.82187 | 27.86594 | 12252 ft | 306 kts | 96° |
| 2026-05-06 11:35 | 40.82023 | 27.89361 | 11999 ft | 300 kts | 83° |
| 2026-05-06 11:35 | 40.82203 | 27.92076 | 11746 ft | 294 kts | 80° |
| 2026-05-06 11:35 | 40.82391 | 27.94706 | 11499 ft | 290 kts | 80° |
| 2026-05-06 11:36 | 40.82575 | 27.97339 | 11251 ft | 286 kts | 80° |
| 2026-05-06 11:36 | 40.82750 | 27.99933 | 11002 ft | 281 kts | 80° |
| 2026-05-06 11:36 | 40.82921 | 28.02453 | 10754 ft | 272 kts | 80° |
| 2026-05-06 11:36 | 40.83089 | 28.04931 | 10514 ft | 270 kts | 80° |
| 2026-05-06 11:37 | 40.83255 | 28.07388 | 10286 ft | 268 kts | 80° |
| 2026-05-06 11:37 | 40.83419 | 28.09832 | 10047 ft | 266 kts | 80° |
| 2026-05-06 11:37 | 40.83582 | 28.12246 | 9869 ft | 260 kts | 80° |
| 2026-05-06 11:37 | 40.83742 | 28.14600 | 9733 ft | 255 kts | 80° |
| 2026-05-06 11:38 | 40.83901 | 28.16927 | 9601 ft | 254 kts | 80° |
| 2026-05-06 11:38 | 40.84060 | 28.19243 | 9466 ft | 253 kts | 80° |
| 2026-05-06 11:38 | 40.84216 | 28.21559 | 9335 ft | 253 kts | 80° |
| 2026-05-06 11:38 | 40.84370 | 28.23868 | 9204 ft | 252 kts | 80° |
| 2026-05-06 11:39 | 40.84523 | 28.26174 | 9127 ft | 252 kts | 80° |
| 2026-05-06 11:39 | 40.84675 | 28.28468 | 9034 ft | 247 kts | 80° |
| 2026-05-06 11:39 | 40.84821 | 28.30701 | 8877 ft | 241 kts | 80° |
| 2026-05-06 11:39 | 40.84964 | 28.32900 | 8736 ft | 240 kts | 80° |
| 2026-05-06 11:40 | 40.85108 | 28.35099 | 8588 ft | 243 kts | 80° |
| 2026-05-06 11:40 | 40.85255 | 28.37329 | 8453 ft | 249 kts | 81° |
| 2026-05-06 11:40 | 40.85404 | 28.39610 | 8306 ft | 250 kts | 81° |
| 2026-05-06 11:40 | 40.85553 | 28.41897 | 8200 ft | 250 kts | 81° |
| 2026-05-06 11:41 | 40.85701 | 28.44181 | 8091 ft | 249 kts | 81° |
| 2026-05-06 11:41 | 40.85931 | 28.46437 | 7982 ft | 246 kts | 71° |
| 2026-05-06 11:41 | 40.86467 | 28.48567 | 7765 ft | 244 kts | 67° |
| 2026-05-06 11:41 | 40.87022 | 28.50681 | 7551 ft | 243 kts | 67° |
| 2026-05-06 11:42 | 40.87569 | 28.52789 | 7359 ft | 242 kts | 67° |
| 2026-05-06 11:42 | 40.88114 | 28.54889 | 7157 ft | 241 kts | 67° |
| 2026-05-06 11:42 | 40.88658 | 28.56983 | 6959 ft | 240 kts | 67° |
| 2026-05-06 11:42 | 40.89200 | 28.59067 | 6762 ft | 240 kts | 68° |
| 2026-05-06 11:43 | 40.89741 | 28.61147 | 6556 ft | 239 kts | 68° |
| 2026-05-06 11:43 | 40.90278 | 28.63222 | 6353 ft | 238 kts | 68° |
| 2026-05-06 11:43 | 40.90812 | 28.65287 | 6148 ft | 237 kts | 68° |
| 2026-05-06 11:44 | 40.92282 | 28.69093 | 5743 ft | 231 kts | 43° |
| 2026-05-06 11:44 | 40.93551 | 28.70360 | 5565 ft | 228 kts | 26° |
| 2026-05-06 11:44 | 40.94944 | 28.71362 | 5373 ft | 226 kts | 27° |
| 2026-05-06 11:44 | 40.96302 | 28.72354 | 5183 ft | 220 kts | 27° |
| 2026-05-06 11:45 | 40.97689 | 28.73133 | 5061 ft | 215 kts | 11° |
| 2026-05-06 11:45 | 40.99168 | 28.73297 | 5010 ft | 213 kts | 358° |
| 2026-05-06 11:45 | 41.00635 | 28.73266 | 5009 ft | 210 kts | 358° |
| 2026-05-06 11:45 | 41.02098 | 28.73241 | 4952 ft | 210 kts | 358° |
| 2026-05-06 11:46 | 41.03550 | 28.73214 | 4735 ft | 207 kts | 358° |
| 2026-05-06 11:46 | 41.04949 | 28.73187 | 4492 ft | 203 kts | 358° |
| 2026-05-06 11:46 | 41.06347 | 28.73160 | 4215 ft | 197 kts | 359° |
| 2026-05-06 11:46 | 41.07691 | 28.73134 | 3968 ft | 189 kts | 358° |
| 2026-05-06 11:47 | 41.08988 | 28.73109 | 3721 ft | 184 kts | 359° |
| 2026-05-06 11:47 | 41.10263 | 28.73085 | 3466 ft | 183 kts | 358° |
| 2026-05-06 11:47 | 41.11537 | 28.73060 | 3218 ft | 181 kts | 359° |
| 2026-05-06 11:47 | 41.12780 | 28.73036 | 2967 ft | 176 kts | 359° |
| 2026-05-06 11:48 | 41.13990 | 28.73013 | 2740 ft | 171 kts | 358° |
| 2026-05-06 11:48 | 41.15154 | 28.72990 | 2526 ft | 164 kts | 359° |
| 2026-05-06 11:48 | 41.16295 | 28.72968 | 2299 ft | 164 kts | 359° |
| 2026-05-06 11:48 | 41.17434 | 28.72946 | 2081 ft | 163 kts | 358° |
| 2026-05-06 11:49 | 41.18554 | 28.72924 | 1865 ft | 163 kts | 359° |
| 2026-05-06 11:49 | 41.19637 | 28.72903 | 1663 ft | 149 kts | 358° |
| 2026-05-06 11:49 | 41.20652 | 28.72884 | 1454 ft | 143 kts | 358° |
| 2026-05-06 11:49 | 41.21643 | 28.72865 | 1257 ft | 141 kts | 359° |
| 2026-05-06 11:50 | 41.22617 | 28.72846 | 1071 ft | 139 kts | 359° |
| 2026-05-06 11:50 | 41.23576 | 28.72822 | 854 ft | 137 kts | 1° |
| 2026-05-06 11:50 | 41.24521 | 28.72798 | 692 ft | 134 kts | 2° |
| 2026-05-06 11:50 | 41.25446 | 28.72783 | 539 ft | 132 kts | 4° |
| 2026-05-06 11:51 | 41.26360 | 28.72762 | 385 ft | 131 kts | 4° |
| 2026-05-06 11:51 | 41.27221 | 28.72731 | 334 ft | 109 kts | 3° |
| 2026-05-06 11:51 | 41.27755 | 28.72743 | 331 ft | 43 kts | 359° |
| 2026-05-06 11:51 | 41.27978 | 28.72767 | 333 ft | 21 kts | 23° |
| 2026-05-06 11:52 | 41.28085 | 28.72842 | 333 ft | 14 kts | 28° |
| 2026-05-06 11:52 | 41.28127 | 28.72943 | 333 ft | 13 kts | 120° |
| 2026-05-06 11:52 | 41.28062 | 28.72963 | 333 ft | 9 kts | 176° |
| 2026-05-06 11:52 | 41.27990 | 28.72968 | 333 ft | 12 kts | 176° |
| 2026-05-06 11:53 | 41.27902 | 28.72974 | 330 ft | 14 kts | 179° |
| 2026-05-06 11:53 | 41.27797 | 28.72981 | 331 ft | 16 kts | 184° |
| 2026-05-06 11:53 | 41.27676 | 28.72973 | 331 ft | 19 kts | 181° |
| 2026-05-06 11:53 | 41.27559 | 28.72975 | 330 ft | 16 kts | 179° |
| 2026-05-06 11:54 | 41.27449 | 28.72978 | 334 ft | 16 kts | 178° |
| 2026-05-06 11:54 | 41.27329 | 28.72981 | 333 ft | 18 kts | 180° |
| 2026-05-06 11:54 | 41.27192 | 28.72984 | 334 ft | 18 kts | 179° |
| 2026-05-06 11:54 | 41.27085 | 28.72989 | 334 ft | 16 kts | 179° |
| 2026-05-06 11:55 | 41.26964 | 28.72991 | 332 ft | 18 kts | 179° |
| 2026-05-06 11:55 | 41.26870 | 28.73023 | 333 ft | 13 kts | 117° |
| 2026-05-06 11:55 | 41.26868 | 28.73157 | 332 ft | 16 kts | 89° |
| 2026-05-06 11:55 | 41.26869 | 28.73305 | 334 ft | 16 kts | 88° |
| 2026-05-06 11:56 | 41.26864 | 28.73428 | 332 ft | 9 kts | 126° |
| 2026-05-06 11:56 | 41.26810 | 28.73441 | 333 ft | 6 kts | 178° |
| 2026-05-06 11:56 | 41.26784 | 28.73442 | 330 ft | 2 kts | 179° |